createdAt,value
2023-05-24T00:02:14.295Z,2.40
2023-05-24T00:04:42.362Z,2.60
2023-05-24T00:07:09.583Z,3.08
2023-05-24T00:09:36.642Z,3.30
2023-05-24T00:12:03.756Z,3.00
2023-05-24T00:14:30.889Z,3.00
2023-05-24T00:16:58.200Z,2.85
2023-05-24T00:19:25.947Z,3.38
2023-05-24T00:21:53.044Z,3.35
2023-05-24T00:24:20.035Z,3.30
2023-05-24T00:26:47.253Z,3.00
2023-05-24T00:29:14.497Z,3.05
2023-05-24T00:31:41.998Z,2.80
2023-05-24T00:34:10.253Z,2.90
2023-05-24T00:36:38.454Z,3.20
2023-05-24T00:39:06.073Z,2.95
2023-05-24T00:41:33.590Z,3.03
2023-05-24T00:44:00.699Z,2.60
2023-05-24T00:46:32.188Z,3.42
2023-05-24T00:49:00.587Z,3.20
2023-05-24T00:51:28.544Z,3.50
2023-05-24T00:53:56.430Z,3.13
2023-05-24T00:56:23.808Z,3.05
2023-05-24T00:58:54.889Z,2.80
2023-05-24T01:01:26.428Z,3.63
2023-05-24T01:03:54.497Z,3.50
2023-05-24T01:06:22.269Z,3.38
2023-05-24T01:09:01.655Z,3.40
2023-05-24T01:12:06.381Z,3.60
2023-05-24T01:14:39.463Z,3.70
2023-05-24T01:17:10.045Z,3.60
2023-05-24T01:19:49.205Z,2.80
2023-05-24T01:22:45.220Z,3.33
2023-05-24T01:25:37.408Z,3.30
2023-05-24T01:28:06.461Z,3.97
2023-05-24T01:30:34.516Z,4.03
2023-05-24T01:33:01.802Z,3.67
2023-05-24T01:35:28.869Z,3.50
2023-05-24T01:37:55.933Z,3.60
2023-05-24T01:40:23.143Z,3.50
2023-05-24T01:43:08.350Z,3.60
2023-05-24T01:45:38.352Z,3.50
2023-05-24T01:48:18.967Z,3.75
2023-05-24T01:50:52.637Z,3.90
2023-05-24T01:53:26.375Z,4.13
2023-05-24T01:55:57.425Z,4.00
2023-05-24T01:58:26.497Z,3.75
2023-05-24T02:00:53.967Z,3.72
2023-05-24T02:03:21.938Z,4.57
2023-05-24T02:05:49.068Z,4.85
2023-05-24T02:08:16.164Z,4.65
2023-05-24T02:10:43.492Z,3.90
2023-05-24T02:13:11.616Z,4.18
2023-05-24T02:15:38.717Z,4.28
2023-05-24T02:18:08.273Z,3.70
2023-05-24T02:20:39.062Z,3.80
2023-05-24T02:23:06.940Z,4.00
2023-05-24T02:25:34.154Z,4.30
2023-05-24T02:28:01.433Z,4.20
2023-05-24T02:30:28.571Z,4.45
2023-05-24T02:32:56.309Z,4.05
2023-05-24T02:35:23.457Z,3.67
2023-05-24T02:37:50.490Z,4.35
2023-05-24T02:40:17.718Z,4.30
2023-05-24T02:42:44.827Z,4.00
2023-05-24T02:45:11.865Z,3.67
2023-05-24T02:47:38.971Z,3.92
2023-05-24T02:50:07.142Z,4.07
2023-05-24T02:52:34.181Z,4.40
2023-05-24T02:55:01.347Z,4.15
2023-05-24T02:57:28.988Z,3.53
2023-05-24T02:59:56.317Z,4.50
2023-05-24T03:02:23.559Z,3.75
2023-05-24T03:04:50.619Z,4.45
2023-05-24T03:07:17.717Z,4.28
2023-05-24T03:09:44.887Z,4.03
2023-05-24T03:12:12.954Z,3.85
2023-05-24T03:14:40.181Z,4.55
2023-05-24T03:17:07.290Z,3.92
2023-05-24T03:19:35.277Z,4.18
2023-05-24T03:22:02.369Z,4.32
2023-05-24T03:24:29.410Z,3.92
2023-05-24T03:26:57.550Z,4.93
2023-05-24T03:29:24.714Z,4.93
2023-05-24T03:31:53.232Z,4.10
2023-05-24T03:34:20.577Z,4.00
2023-05-24T03:36:47.630Z,3.88
2023-05-24T03:39:14.642Z,3.97
2023-05-24T03:42:00.202Z,4.05
2023-05-24T03:44:27.338Z,3.97
2023-05-24T03:46:54.370Z,3.90
2023-05-24T03:49:21.400Z,4.07
2023-05-24T03:51:49.324Z,4.30
2023-05-24T03:54:18.063Z,4.20
2023-05-24T03:56:45.201Z,4.30
2023-05-24T03:59:12.204Z,4.70
2023-05-24T04:01:39.646Z,4.45
2023-05-24T04:04:06.760Z,4.15
2023-05-24T04:06:33.824Z,3.88
2023-05-24T04:09:02.111Z,3.78
2023-05-24T04:11:29.937Z,3.78
2023-05-24T04:14:00.692Z,4.05
2023-05-24T04:16:29.390Z,3.78
2023-05-24T04:18:58.244Z,4.35
2023-05-24T04:21:25.418Z,4.35
2023-05-24T04:23:54.333Z,3.53
2023-05-24T04:26:21.468Z,3.65
2023-05-24T04:28:48.873Z,3.72
2023-05-24T04:31:16.571Z,4.10
2023-05-24T04:33:43.954Z,5.00
2023-05-24T04:36:12.145Z,4.60
2023-05-24T04:38:41.222Z,4.50
2023-05-24T04:41:08.409Z,4.07
2023-05-24T04:43:35.493Z,5.22
2023-05-24T04:46:02.742Z,4.22
2023-05-24T04:48:30.265Z,4.63
2023-05-24T04:51:01.207Z,4.53
2023-05-24T04:53:28.238Z,5.28
2023-05-24T04:55:55.312Z,4.68
2023-05-24T04:58:22.424Z,5.00
2023-05-24T05:00:49.554Z,4.75
2023-05-24T05:03:16.794Z,5.15
2023-05-24T05:05:44.646Z,4.65
2023-05-24T05:08:11.648Z,5.15
2023-05-24T05:10:38.703Z,5.38
2023-05-24T05:13:06.073Z,5.28
2023-05-24T05:15:33.557Z,5.45
2023-05-24T05:18:00.848Z,4.85
2023-05-24T05:20:27.934Z,4.80
2023-05-24T05:22:54.989Z,4.78
2023-05-24T05:25:22.234Z,4.57
2023-05-24T05:27:49.335Z,4.10
2023-05-24T05:30:16.564Z,4.43
2023-05-24T05:32:43.935Z,3.70
2023-05-24T05:35:11.211Z,3.92
2023-05-24T05:37:38.262Z,4.80
2023-05-24T05:40:05.662Z,3.90
2023-05-24T05:42:32.761Z,3.53
2023-05-24T05:44:59.838Z,3.95
2023-05-24T05:47:26.970Z,3.58
2023-05-24T05:49:54.066Z,3.60
2023-05-24T05:52:21.209Z,2.95
2023-05-24T05:54:48.240Z,2.97
2023-05-24T05:57:16.474Z,3.10
2023-05-24T05:59:43.561Z,2.85
2023-05-24T06:02:12.936Z,2.70
2023-05-24T06:04:40.002Z,2.90
2023-05-24T06:07:07.137Z,3.33
2023-05-24T06:09:34.261Z,2.67
2023-05-24T06:12:01.417Z,3.40
2023-05-24T06:14:28.469Z,3.30
2023-05-24T06:16:56.836Z,2.97
2023-05-24T06:19:25.264Z,2.78
2023-05-24T06:21:52.306Z,2.78
2023-05-24T06:24:22.961Z,2.85
2023-05-24T06:26:53.179Z,2.90
2023-05-24T06:29:22.117Z,2.88
2023-05-24T06:31:50.388Z,3.10
2023-05-24T06:34:21.537Z,2.67
2023-05-24T06:36:51.613Z,2.35
2023-05-24T06:39:19.156Z,2.55
2023-05-24T06:41:47.408Z,2.28
2023-05-24T06:44:14.793Z,2.58
2023-05-24T06:46:42.113Z,2.63
2023-05-24T06:49:09.268Z,2.33
2023-05-24T06:51:38.121Z,2.00
2023-05-24T06:54:05.220Z,2.10
2023-05-24T06:56:32.239Z,1.70
2023-05-24T06:59:00.266Z,2.00
2023-05-24T07:01:27.784Z,2.55
2023-05-24T07:03:55.253Z,1.60
2023-05-24T07:06:22.517Z,2.55
2023-05-24T07:08:49.520Z,1.98
2023-05-24T07:11:16.792Z,2.30
2023-05-24T07:13:43.877Z,2.30
2023-05-24T07:16:11.950Z,2.10
2023-05-24T07:18:41.892Z,2.25
2023-05-24T07:21:09.177Z,2.60
2023-05-24T07:23:37.157Z,3.15
2023-05-24T07:26:04.939Z,2.97
2023-05-24T07:28:32.877Z,3.03
2023-05-24T07:31:00.255Z,3.35
2023-05-24T07:33:27.366Z,3.20
2023-05-24T07:35:54.862Z,3.50
2023-05-24T07:38:22.087Z,3.55
2023-05-24T07:40:49.279Z,4.32
2023-05-24T07:43:16.370Z,6.13
2023-05-24T07:45:43.596Z,4.60
2023-05-24T07:48:11.056Z,10.23
2023-05-24T07:50:38.708Z,10.77
2023-05-24T07:53:06.452Z,9.88
2023-05-24T07:55:33.772Z,9.75
2023-05-24T07:58:00.885Z,9.90
2023-05-24T08:00:27.924Z,11.07
2023-05-24T08:02:55.025Z,10.68
2023-05-24T08:05:22.327Z,10.38
2023-05-24T08:07:49.386Z,10.15
2023-05-24T08:10:16.910Z,9.80
2023-05-24T08:12:43.976Z,11.80
2023-05-24T08:15:11.230Z,9.63
2023-05-24T08:17:39.368Z,10.88
2023-05-24T08:20:09.116Z,10.00
2023-05-24T08:22:37.586Z,9.35
2023-05-24T08:25:06.368Z,10.43
2023-05-24T08:27:33.802Z,9.80
2023-05-24T08:30:02.090Z,9.25
2023-05-24T08:32:29.129Z,9.48
2023-05-24T08:35:03.744Z,10.13
2023-05-24T08:37:43.969Z,11.07
2023-05-24T08:40:11.173Z,10.40
2023-05-24T08:42:39.885Z,10.93
2023-05-24T08:45:12.506Z,9.82
2023-05-24T08:47:40.847Z,9.70
2023-05-24T08:50:08.930Z,10.90
2023-05-24T08:52:36.598Z,9.73
2023-05-24T08:55:07.045Z,9.90
2023-05-24T08:57:35.097Z,9.07
2023-05-24T09:00:02.236Z,8.98
2023-05-24T09:02:30.504Z,9.38
2023-05-24T09:04:58.729Z,9.15
2023-05-24T09:07:26.474Z,8.93
2023-05-24T09:10:05.414Z,8.50
2023-05-24T09:12:38.108Z,8.90
2023-05-24T09:15:07.793Z,9.55
2023-05-24T09:17:37.053Z,9.70
2023-05-24T09:20:07.342Z,8.38
2023-05-24T09:22:40.799Z,7.68
2023-05-24T09:25:10.041Z,7.45
2023-05-24T09:27:37.859Z,7.05
2023-05-24T09:30:10.613Z,6.40
2023-05-24T09:32:38.221Z,6.70
2023-05-24T09:35:09.711Z,6.55
2023-05-24T09:37:39.003Z,5.93
2023-05-24T09:40:11.081Z,6.03
2023-05-24T09:42:38.564Z,6.75
2023-05-24T10:18:10.609Z,6.13
2023-05-24T10:20:41.709Z,5.43
2023-05-24T10:23:11.132Z,5.53
2023-05-24T10:25:44.986Z,5.47
2023-05-24T10:28:15.343Z,5.55
2023-05-24T10:31:00.733Z,6.32
2023-05-24T10:33:28.803Z,6.70
2023-05-24T10:35:57.268Z,5.28
2023-05-24T10:38:25.121Z,5.18
2023-05-24T10:40:52.586Z,5.50
2023-05-24T10:43:21.587Z,5.05
2023-05-24T10:45:50.130Z,5.68
2023-05-24T10:48:17.868Z,5.40
2023-05-24T10:50:45.294Z,5.55
2023-05-24T10:53:17.706Z,5.97
2023-05-24T10:56:01.230Z,5.88
2023-05-24T10:58:46.433Z,5.85
2023-05-24T11:01:29.754Z,5.40
2023-05-24T11:04:18.434Z,5.30
2023-05-24T11:06:57.136Z,5.28
2023-05-24T11:09:25.569Z,4.53
2023-05-24T11:12:00.328Z,4.28
2023-05-24T11:14:29.398Z,4.20
2023-05-24T11:16:56.953Z,4.53
2023-05-24T11:19:29.828Z,3.80
2023-05-24T11:22:00.724Z,3.63
2023-05-24T11:24:29.238Z,4.35
2023-05-24T11:26:57.277Z,4.07
2023-05-24T11:29:24.482Z,4.00
2023-05-24T11:31:54.455Z,4.13
2023-05-24T11:34:22.279Z,4.40
2023-05-24T11:36:50.184Z,4.45
2023-05-24T11:39:18.132Z,4.80
2023-05-24T11:41:45.322Z,4.85
2023-05-24T11:44:12.499Z,4.10
2023-05-24T11:46:40.716Z,4.55
2023-05-24T11:49:12.556Z,4.40
2023-05-24T11:51:39.656Z,4.05
2023-05-24T11:54:06.683Z,3.85
2023-05-24T11:56:34.217Z,4.05
2023-05-24T11:59:15.635Z,3.97
2023-05-24T12:01:43.049Z,3.42
2023-05-24T12:04:10.853Z,3.45
2023-05-24T12:06:44.754Z,3.35
2023-05-24T12:09:15.729Z,3.55
2023-05-24T12:11:48.314Z,3.10
2023-05-24T12:14:16.959Z,3.65
2023-05-24T12:16:45.604Z,3.30
2023-05-24T12:19:31.389Z,3.60
2023-05-24T12:22:00.747Z,3.33
2023-05-24T12:24:28.662Z,3.60
2023-05-24T12:27:08.094Z,3.80
2023-05-24T12:29:37.988Z,3.42
2023-05-24T12:32:05.991Z,3.35
2023-05-24T12:34:33.142Z,4.07
2023-05-24T12:37:00.247Z,3.30
2023-05-24T12:39:35.296Z,3.70
2023-05-24T12:42:04.478Z,3.73
2023-05-24T12:44:35.699Z,3.92
2023-05-24T12:47:05.312Z,3.45
2023-05-24T12:49:32.687Z,4.60
2023-05-24T12:52:00.054Z,4.20
2023-05-24T12:54:28.912Z,4.25
2023-05-24T12:56:57.812Z,4.18
2023-05-24T12:59:26.483Z,4.30
2023-05-24T13:01:53.965Z,4.53
2023-05-24T13:04:24.561Z,5.25
2023-05-24T13:06:51.679Z,4.57
2023-05-24T13:09:21.718Z,4.30
2023-05-24T13:11:49.315Z,4.75
2023-05-24T13:14:17.041Z,4.72
2023-05-24T13:16:44.587Z,4.88
2023-05-24T13:19:12.625Z,5.40
2023-05-24T13:21:40.491Z,4.78
2023-05-24T13:24:07.933Z,4.28
2023-05-24T13:26:37.906Z,5.03
2023-05-24T13:31:41.251Z,5.00
2023-05-24T13:34:09.357Z,4.97
2023-05-24T13:36:38.120Z,4.80
2023-05-24T13:39:15.625Z,4.53
2023-05-24T13:41:44.477Z,4.80
2023-05-24T13:44:13.296Z,5.25
2023-05-24T13:46:41.039Z,5.43
2023-05-24T13:49:09.483Z,4.80
2023-05-24T13:51:37.421Z,5.43
2023-05-24T13:54:07.430Z,5.22
2023-05-24T13:56:35.711Z,5.25
2023-05-24T13:59:04.626Z,5.15
2023-05-24T14:01:32.646Z,5.03
2023-05-24T14:04:02.869Z,5.35
2023-05-24T14:06:30.164Z,5.20
2023-05-24T14:08:57.288Z,5.43
2023-05-24T14:11:25.657Z,5.35
2023-05-24T14:16:24.198Z,6.07
2023-05-24T14:18:51.892Z,5.53
2023-05-24T14:21:21.868Z,5.30
2023-05-24T14:23:50.239Z,5.60
2023-05-24T14:26:18.942Z,5.95
2023-05-24T14:28:46.319Z,5.63
2023-05-24T14:31:13.450Z,5.88
2023-05-24T14:33:40.507Z,5.78
2023-05-24T14:36:08.178Z,5.03
2023-05-24T14:38:35.321Z,5.03
2023-05-24T14:41:03.026Z,5.30
2023-05-24T14:43:30.087Z,5.47
2023-05-24T14:45:57.178Z,5.53
2023-05-24T14:48:24.263Z,4.85
2023-05-24T14:50:51.483Z,5.40
2023-05-24T14:53:18.593Z,4.93
2023-05-24T14:55:45.881Z,4.68
2023-05-24T14:58:13.335Z,4.88
2023-05-24T15:00:41.807Z,5.93
2023-05-24T15:03:09.454Z,5.40
2023-05-24T15:05:37.226Z,5.32
2023-05-24T15:08:05.772Z,5.10
2023-05-24T15:10:33.598Z,4.50
2023-05-24T15:13:01.669Z,4.63
2023-05-24T15:15:28.900Z,4.82
2023-05-24T15:17:57.382Z,4.97
2023-05-24T15:22:52.585Z,4.90
2023-05-24T15:25:19.742Z,4.38
2023-05-24T15:27:47.768Z,4.75
2023-05-24T15:30:15.137Z,4.55
2023-05-24T15:32:42.194Z,4.32
2023-05-24T15:35:09.669Z,4.43
2023-05-24T15:37:36.716Z,4.40
2023-05-24T15:40:04.109Z,4.72
2023-05-24T15:42:32.339Z,3.92
2023-05-24T15:44:59.411Z,4.30
2023-05-24T15:47:29.306Z,4.38
2023-05-24T15:49:57.193Z,4.38
2023-05-24T15:52:24.408Z,4.70
2023-05-24T15:54:51.524Z,3.90
2023-05-24T15:57:18.727Z,4.18
2023-05-24T15:59:45.757Z,4.28
2023-05-24T16:02:12.865Z,3.97
2023-05-24T16:04:40.005Z,4.65
2023-05-24T16:07:07.417Z,3.70
2023-05-24T16:09:34.657Z,4.38
2023-05-24T16:12:01.801Z,4.00
2023-05-24T16:14:29.987Z,4.32
2023-05-24T16:16:59.002Z,4.40
2023-05-24T16:19:26.931Z,5.95
2023-05-24T16:21:54.052Z,4.65
2023-05-24T16:24:21.135Z,4.18
2023-05-24T16:26:48.174Z,5.40
2023-05-24T16:29:17.014Z,4.57
2023-05-24T16:31:44.115Z,4.30
2023-05-24T16:34:11.277Z,4.40
2023-05-24T16:36:38.416Z,4.32
2023-05-24T16:39:05.763Z,4.40
2023-05-24T16:41:37.806Z,4.85
2023-05-24T16:44:04.990Z,5.03
2023-05-24T16:46:32.772Z,5.20
2023-05-24T16:49:00.669Z,4.68
2023-05-24T16:51:27.692Z,4.80
2023-05-24T16:53:54.781Z,5.85
2023-05-24T16:56:23.284Z,5.13
2023-05-24T16:58:50.385Z,5.35
2023-05-24T17:01:17.608Z,6.00
2023-05-24T17:03:44.767Z,5.60
2023-05-24T17:06:11.969Z,5.80
2023-05-24T17:08:39.265Z,5.43
2023-05-24T17:11:06.766Z,5.80
2023-05-24T17:13:34.299Z,6.60
2023-05-24T17:16:03.808Z,6.22
2023-05-24T17:18:31.246Z,5.90
2023-05-24T17:21:00.207Z,5.10
2023-05-24T17:23:28.804Z,5.63
2023-05-24T17:25:55.899Z,5.35
2023-05-24T17:28:27.628Z,5.32
2023-05-24T17:30:59.349Z,5.30
2023-05-24T17:33:28.682Z,6.30
2023-05-24T17:35:56.816Z,5.57
2023-05-24T17:38:25.377Z,5.90
2023-05-24T17:40:59.776Z,6.10
2023-05-24T17:43:29.357Z,6.38
2023-05-24T17:46:04.296Z,6.28
2023-05-24T17:48:38.902Z,5.90
2023-05-24T17:51:07.908Z,6.43
2023-05-24T17:53:36.448Z,6.55
2023-05-24T17:56:05.117Z,5.80
2023-05-24T17:58:36.309Z,5.80
2023-05-24T18:01:05.586Z,5.78
2023-05-24T18:03:37.399Z,5.15
2023-05-24T18:06:07.099Z,5.50
2023-05-24T18:08:37.387Z,5.97
2023-05-24T18:11:08.636Z,6.53
2023-05-24T18:13:40.584Z,6.55
2023-05-24T18:16:10.486Z,6.57
2023-05-24T18:18:41.093Z,6.68
2023-05-24T18:21:09.696Z,6.13
2023-05-24T18:23:40.131Z,6.22
2023-05-24T18:26:09.400Z,5.90
2023-05-24T18:28:37.903Z,5.57
2023-05-24T18:31:08.540Z,4.72
2023-05-24T18:33:36.081Z,4.70
2023-05-24T18:36:06.905Z,5.13
2023-05-24T18:38:35.028Z,5.35
2023-05-24T18:41:05.904Z,6.00
2023-05-24T18:43:33.349Z,5.65
2023-05-24T18:46:00.501Z,4.57
2023-05-24T18:48:27.642Z,5.43
2023-05-24T18:50:55.087Z,6.40
2023-05-24T18:53:22.169Z,5.60
2023-05-24T18:55:49.275Z,6.20
2023-05-24T18:58:16.264Z,4.85
2023-05-24T19:00:43.537Z,5.22
2023-05-24T19:03:13.804Z,5.35
2023-05-24T19:05:43.510Z,4.55
2023-05-24T19:08:11.332Z,4.25
2023-05-24T19:10:38.453Z,4.45
2023-05-24T19:13:06.765Z,4.53
2023-05-24T19:15:35.814Z,5.50
2023-05-24T19:18:03.494Z,4.30
2023-05-24T19:20:30.660Z,3.85
2023-05-24T19:22:57.869Z,4.55
2023-05-24T19:25:24.888Z,4.90
2023-05-24T19:30:22.320Z,4.38
2023-05-24T19:32:49.436Z,5.07
2023-05-24T19:35:16.576Z,4.85
2023-05-24T19:37:43.886Z,5.43
2023-05-24T19:40:11.488Z,4.63
2023-05-24T19:42:38.536Z,5.40
2023-05-24T19:45:06.290Z,4.50
2023-05-24T19:47:33.298Z,4.00
2023-05-24T19:50:00.566Z,4.20
2023-05-24T19:52:27.609Z,4.07
2023-05-24T19:54:54.722Z,3.28
2023-05-24T19:57:21.758Z,4.30
2023-05-24T19:59:48.896Z,4.25
2023-05-24T20:02:15.923Z,4.30
2023-05-24T20:04:44.150Z,4.32
2023-05-24T20:07:11.611Z,3.95
2023-05-24T20:09:39.008Z,4.15
2023-05-24T20:12:06.389Z,4.72
2023-05-24T20:14:33.433Z,4.00
2023-05-24T20:17:01.310Z,4.68
2023-05-24T20:19:29.455Z,4.47
2023-05-24T20:21:57.228Z,4.60
2023-05-24T20:24:24.254Z,5.30
2023-05-24T20:26:51.311Z,4.65
2023-05-24T20:29:18.409Z,4.40
2023-05-24T20:31:47.235Z,4.35
2023-05-24T20:34:14.422Z,4.40
2023-05-24T20:36:43.549Z,4.70
2023-05-24T20:39:11.012Z,4.70
2023-05-24T20:41:38.004Z,4.20
2023-05-24T20:44:05.063Z,3.90
2023-05-24T20:46:32.165Z,4.63
2023-05-24T20:48:59.572Z,5.40
2023-05-24T20:51:26.574Z,5.53
2023-05-24T20:53:53.622Z,4.82
2023-05-24T20:56:23.602Z,4.70
2023-05-24T20:58:53.191Z,5.18
2023-05-24T21:01:21.308Z,5.30
2023-05-24T21:03:48.511Z,4.75
2023-05-24T21:06:15.629Z,5.90
2023-05-24T21:08:43.550Z,5.63
2023-05-24T21:11:10.652Z,4.95
2023-05-24T21:13:37.891Z,4.43
2023-05-24T21:16:05.056Z,4.88
2023-05-24T21:18:33.469Z,5.28
2023-05-24T21:21:00.634Z,4.90
2023-05-24T21:23:27.655Z,5.45
2023-05-24T21:25:54.669Z,4.53
2023-05-24T21:28:21.755Z,4.53
2023-05-24T21:30:48.934Z,4.78
2023-05-24T21:33:16.687Z,4.50
2023-05-24T21:35:44.081Z,4.38
2023-05-24T21:38:11.375Z,4.72
2023-05-24T21:40:38.436Z,4.55
2023-05-24T21:43:05.596Z,5.63
2023-05-24T21:45:32.621Z,5.53
2023-05-24T21:47:59.715Z,6.30
2023-05-24T21:50:26.771Z,6.93
2023-05-24T21:52:53.845Z,6.75
2023-05-24T21:55:21.073Z,7.00
2023-05-24T21:57:48.135Z,7.40
2023-05-24T22:00:16.914Z,6.78
2023-05-24T22:02:44.064Z,6.13
2023-05-24T22:05:11.323Z,7.13
2023-05-24T22:07:38.584Z,6.50
2023-05-24T22:10:07.471Z,5.85
2023-05-24T22:12:35.234Z,5.45
2023-05-24T22:15:02.687Z,4.88
2023-05-24T22:17:32.721Z,5.35
2023-05-24T22:20:04.351Z,4.70
2023-05-24T22:22:31.540Z,6.55
2023-05-24T22:25:00.340Z,5.93
2023-05-24T22:27:27.580Z,5.65
2023-05-24T22:29:55.521Z,5.07
2023-05-24T22:32:22.866Z,5.18
2023-05-24T22:34:49.902Z,5.93
2023-05-24T22:37:17.122Z,6.35
2023-05-24T22:39:45.160Z,6.00
2023-05-24T22:42:12.220Z,6.63
2023-05-24T22:44:39.254Z,6.63
2023-05-24T22:47:06.342Z,6.65
2023-05-24T22:49:34.388Z,6.35
2023-05-24T22:52:01.855Z,6.53
2023-05-24T22:54:28.958Z,5.82
2023-05-24T22:56:56.886Z,5.18
2023-05-24T22:59:23.980Z,4.60
2023-05-24T23:01:51.260Z,4.32
2023-05-24T23:04:21.097Z,4.88
2023-05-24T23:06:53.370Z,4.53
2023-05-24T23:09:35.025Z,4.30
2023-05-24T23:12:08.477Z,4.80
2023-05-24T23:14:38.688Z,5.00
2023-05-24T23:17:06.852Z,4.35
2023-05-24T23:19:34.351Z,4.55
2023-05-24T23:22:03.559Z,3.83
2023-05-24T23:24:31.442Z,3.17
2023-05-24T23:26:58.491Z,3.50
2023-05-24T23:29:25.632Z,3.90
2023-05-24T23:31:52.745Z,3.63
2023-05-24T23:34:19.737Z,3.72
2023-05-24T23:36:46.744Z,4.93
2023-05-24T23:39:13.855Z,4.45
2023-05-24T23:41:40.907Z,3.92
2023-05-24T23:44:07.920Z,4.22
2023-05-24T23:46:36.121Z,4.20
2023-05-24T23:49:03.253Z,4.15
2023-05-24T23:51:33.327Z,4.15
2023-05-24T23:54:01.333Z,4.32
2023-05-24T23:56:28.423Z,3.90
2023-05-24T23:58:56.040Z,3.65
